Time;durP1;ratioP1;P1;durP2;ratioP2;P2;SDS_P1;SDS_P2;PMS_P1;PMS_P2;Temp;Humidity;BMP_temperature;BMP_pressure;BME280_temperature;BME280_humidity;BME280_pressure;Samples;Min_cycle;Max_cycle;Signal;HPM_P1;HPM_P2
2022/05/26 00:01:20;;;;;;;36.97;28.40;;;;;;;19.77;100.00;94730.81;5073972;28;20184;-59
2022/05/26 00:03:48;;;;;;;38.75;28.83;;;;;;;19.71;100.00;94730.75;5074310;28;20209;-61
2022/05/26 00:06:16;;;;;;;42.47;27.33;;;;;;;19.95;100.00;94741.53;5074045;28;20561;-59
2022/05/26 00:08:41;;;;;;;43.55;28.02;;;;;;;19.95;100.00;94740.72;5056091;28;20251;-60
2022/05/26 00:11:13;;;;;;;36.35;27.33;;;;;;;19.92;100.00;94730.75;5074005;28;20256;-59
2022/05/26 00:13:40;;;;;;;41.95;28.45;;;;;;;20.15;100.00;94721.03;5074202;28;20208;-58
2022/05/26 00:16:06;;;;;;;39.95;28.02;;;;;;;19.71;100.00;94713.50;5073809;28;20552;-59
2022/05/26 00:18:32;;;;;;;43.30;29.38;;;;;;;19.86;100.00;94703.09;5056016;28;20216;-59
2022/05/26 00:20:57;;;;;;;42.90;29.15;;;;;;;19.43;100.00;94720.34;5073909;28;20557;-60
2022/05/26 00:23:23;;;;;;;43.00;28.60;;;;;;;19.46;100.00;94721.75;5073942;28;20200;-58
2022/05/26 00:25:48;;;;;;;36.53;28.20;;;;;;;19.23;100.00;94730.38;5073644;28;20188;-61
2022/05/26 00:28:14;;;;;;;42.25;28.30;;;;;;;19.44;100.00;94734.84;5073889;28;20201;-60
2022/05/26 00:30:39;;;;;;;42.25;28.65;;;;;;;19.53;100.00;94730.38;5073649;28;20559;-58
2022/05/26 00:33:07;;;;;;;40.33;28.27;;;;;;;19.64;100.00;94730.69;5073738;28;20234;-60
2022/05/26 00:35:34;;;;;;;35.55;27.60;;;;;;;19.75;100.00;94725.06;5055568;28;20766;-60
2022/05/26 00:38:02;;;;;;;39.42;28.30;;;;;;;19.92;100.00;94707.53;5073488;28;20650;-60
2022/05/26 00:40:27;;;;;;;38.40;27.73;;;;;;;19.85;100.00;94704.09;5073307;28;20200;-61
2022/05/26 00:42:53;;;;;;;44.00;28.75;;;;;;;20.09;100.00;94712.25;5072556;28;20201;-61
2022/05/26 00:45:18;;;;;;;39.20;28.02;;;;;;;19.88;100.00;94712.25;5073223;28;20177;-61
2022/05/26 00:47:46;;;;;;;40.42;28.92;;;;;;;19.93;100.00;94722.03;5055278;28;20204;-60
2022/05/26 00:50:20;;;;;;;42.95;28.48;;;;;;;19.68;100.00;94713.84;5073299;28;20197;-61
2022/05/26 00:52:54;;;;;;;42.17;29.63;;;;;;;19.76;100.00;94716.31;5055386;28;20209;-60
2022/05/26 00:55:46;;;;;;;46.17;31.52;;;;;;;19.64;100.00;94715.22;5073135;28;20165;-60
2022/05/26 00:58:24;;;;;;;45.03;29.63;;;;;;;19.58;100.00;94709.97;5073263;28;20224;-59
2022/05/26 01:00:50;;;;;;;42.08;29.80;;;;;;;19.62;100.00;94714.59;5073042;28;20271;-60
2022/05/26 01:03:41;;;;;;;45.30;30.33;;;;;;;19.90;100.00;94720.63;5055209;28;20212;-60
2022/05/26 01:06:15;;;;;;;44.53;30.77;;;;;;;19.73;100.00;94706.38;5072869;28;20173;-60
2022/05/26 01:09:00;;;;;;;48.47;31.17;;;;;;;19.44;100.00;94711.63;5073098;28;20222;-59
2022/05/26 01:11:27;;;;;;;48.70;32.15;;;;;;;19.34;100.00;94730.94;5072786;28;20203;-60
2022/05/26 01:14:01;;;;;;;47.35;31.88;;;;;;;19.26;100.00;94734.41;5072895;28;20563;-60
2022/05/26 01:16:37;;;;;;;46.85;30.83;;;;;;;19.49;100.00;94727.38;5073079;28;20161;-60
2022/05/26 01:19:45;;;;;;;41.15;30.42;;;;;;;19.55;100.00;94729.22;5054805;28;20221;-59
2022/05/26 01:22:41;;;;;;;44.28;31.35;;;;;;;19.47;100.00;94723.38;5072753;28;20625;-59
2022/05/26 01:25:43;;;;;;;41.80;30.05;;;;;;;19.22;100.00;94728.81;5061657;28;20739;-61
2022/05/26 01:28:14;;;;;;;45.97;29.95;;;;;;;19.41;100.00;94730.06;5072643;28;20200;-60
2022/05/26 01:30:58;;;;;;;48.92;32.00;;;;;;;19.12;100.00;94736.03;5054482;28;20263;-61
2022/05/26 01:33:42;;;;;;;41.95;29.60;;;;;;;19.13;100.00;94739.38;5072725;28;20200;-60
2022/05/26 01:36:10;;;;;;;47.38;31.80;;;;;;;18.93;100.00;94740.91;5072521;28;20218;-59
2022/05/26 01:39:01;;;;;;;50.42;32.80;;;;;;;19.10;100.00;94730.25;5072739;28;20291;-61
2022/05/26 01:41:56;;;;;;;41.53;29.95;;;;;;;19.05;100.00;94742.84;5054328;28;20177;-59
2022/05/26 01:44:53;;;;;;;50.55;33.13;;;;;;;18.94;100.00;94757.97;5072263;28;20580;-61
2022/05/26 01:47:37;;;;;;;48.33;32.65;;;;;;;19.13;100.00;94760.81;5072277;28;20536;-60
2022/05/26 01:50:12;;;;;;;46.47;30.75;;;;;;;19.39;100.00;94760.38;5072308;28;20164;-58
2022/05/26 01:53:18;;;;;;;45.80;31.50;;;;;;;19.37;100.00;94758.94;5072117;28;20236;-60
2022/05/26 01:56:11;;;;;;;46.08;31.02;;;;;;;19.35;100.00;94759.13;5071974;28;20272;-60
2022/05/26 01:58:43;;;;;;;42.05;30.00;;;;;;;19.43;100.00;94751.28;5072390;28;20204;-59
2022/05/26 02:01:13;;;;;;;47.47;30.08;;;;;;;19.44;100.00;94758.03;5071924;28;20260;-58
2022/05/26 02:03:41;;;;;;;41.90;31.75;;;;;;;19.72;100.00;94761.53;5097755;22;20219;-60
2022/05/26 02:06:19;;;;;;;44.28;29.50;;;;;;;19.38;100.00;94742.47;5112576;28;20176;-61
2022/05/26 02:08:57;;;;;;;46.35;32.00;;;;;;;19.12;100.00;94742.94;5113290;28;20203;-58
2022/05/26 02:11:24;;;;;;;46.33;33.13;;;;;;;19.07;100.00;94742.66;5112567;28;20237;-60
2022/05/26 02:13:52;;;;;;;43.55;31.13;;;;;;;19.16;100.00;94739.03;5112800;28;20245;-60
2022/05/26 02:16:26;;;;;;;48.80;31.90;;;;;;;19.11;100.00;94739.56;5112498;28;20217;-61
2022/05/26 02:19:16;;;;;;;42.20;31.48;;;;;;;19.31;100.00;94742.38;5111169;28;20217;-61
2022/05/26 02:21:45;;;;;;;48.45;32.25;;;;;;;19.39;100.00;94750.06;5112422;28;20550;-58
2022/05/26 02:24:34;;;;;;;50.40;31.98;;;;;;;19.19;100.00;94736.88;5112755;28;20203;-60
2022/05/26 02:26:59;;;;;;;42.67;29.15;;;;;;;18.95;100.00;94746.69;5113463;28;20260;-61
2022/05/26 02:32:11;;;;;;;50.53;30.73;;;;;;;19.25;100.00;94759.38;5116695;28;20301;-61
2022/05/26 02:34:39;;;;;;;44.20;30.67;;;;;;;19.12;100.00;94771.31;5116329;28;20210;-61
2022/05/26 02:37:07;;;;;;;40.97;30.40;;;;;;;19.25;100.00;94749.06;5116381;28;20183;-61
2022/05/26 02:39:32;;;;;;;40.00;30.33;;;;;;;19.12;100.00;94768.72;5116096;28;20266;-61
2022/05/26 02:41:59;;;;;;;44.67;30.30;;;;;;;19.23;100.00;94755.38;5116450;28;20199;-61
2022/05/26 02:44:26;;;;;;;40.38;29.48;;;;;;;19.25;100.00;94758.56;5116511;28;20196;-60
2022/05/26 02:47:07;;;;;;;47.65;31.80;;;;;;;19.38;100.00;94755.38;5116221;28;20175;-60
2022/05/26 02:49:38;;;;;;;43.67;31.58;;;;;;;19.37;100.00;94744.28;5116092;28;20196;-61
2022/05/26 02:52:34;;;;;;;45.13;31.00;;;;;;;19.08;100.00;94739.13;5115452;28;20172;-61
2022/05/26 02:55:35;;;;;;;47.05;32.53;;;;;;;18.83;100.00;94737.78;5116050;28;20160;-59
2022/05/26 02:58:11;;;;;;;52.17;34.42;;;;;;;18.66;100.00;94754.41;5116537;28;20192;-60
2022/05/26 03:00:51;;;;;;;47.38;32.08;;;;;;;18.82;100.00;94755.06;5115863;28;20220;-58
2022/05/26 03:03:26;;;;;;;50.30;35.47;;;;;;;18.82;100.00;94762.78;5116137;28;20672;-61
2022/05/26 03:05:56;;;;;;;46.38;31.08;;;;;;;18.94;100.00;94770.84;5115799;27;20648;-61
2022/05/26 03:08:25;;;;;;;43.13;32.63;;;;;;;18.92;100.00;94770.22;5116016;28;20645;-61
2022/05/26 03:11:00;;;;;;;49.17;32.67;;;;;;;18.91;100.00;94776.34;5115685;28;20175;-60
2022/05/26 03:13:25;;;;;;;43.47;30.33;;;;;;;19.10;100.00;94775.84;5115807;28;20294;-60
2022/05/26 03:15:52;;;;;;;47.60;32.33;;;;;;;18.79;100.00;94782.91;5115674;27;20254;-61
2022/05/26 03:18:18;;;;;;;41.63;29.98;;;;;;;19.00;100.00;94783.84;5115965;28;20214;-59
2022/05/26 03:20:43;;;;;;;50.22;32.80;;;;;;;18.96;100.00;94785.16;5114022;28;20203;-59
2022/05/26 03:23:09;;;;;;;48.65;32.45;;;;;;;19.19;100.00;94779.91;5115748;28;20282;-61
2022/05/26 03:25:34;;;;;;;43.88;30.70;;;;;;;19.27;100.00;94787.53;5115356;28;20183;-61
2022/05/26 03:28:00;;;;;;;45.85;32.72;;;;;;;19.05;100.00;94788.44;5115651;28;20282;-61
2022/05/26 03:30:25;;;;;;;48.15;33.00;;;;;;;18.95;100.00;94787.91;5113999;28;20182;-61
2022/05/26 03:32:50;;;;;;;45.58;30.67;;;;;;;19.18;100.00;94783.47;5115537;28;20222;-61
2022/05/26 03:40:56;;;;;;;48.10;31.00;;;;;;;19.39;100.00;94793.09;5115093;28;20206;-61
2022/05/26 03:43:31;;;;;;;49.22;32.22;;;;;;;19.20;100.00;94791.81;5115436;28;20195;-61
2022/05/26 03:46:01;;;;;;;47.63;32.05;;;;;;;19.19;100.00;94790.22;5115185;28;20547;-61
2022/05/26 03:48:26;;;;;;;47.00;30.58;;;;;;;19.14;100.00;94797.69;5115363;28;20739;-61
2022/05/26 03:50:52;;;;;;;45.95;31.35;;;;;;;18.89;100.00;94801.50;5115024;28;20250;-59
2022/05/26 03:53:17;;;;;;;47.40;30.83;;;;;;;18.68;100.00;94809.13;5113679;28;20215;-61
2022/05/26 03:55:43;;;;;;;43.72;30.23;;;;;;;18.77;100.00;94801.13;5114674;28;20183;-59
2022/05/26 03:58:08;;;;;;;44.03;32.15;;;;;;;19.09;100.00;94805.16;5115096;28;20192;-61
2022/05/26 04:00:35;;;;;;;44.92;30.90;;;;;;;18.91;100.00;94809.84;5115103;28;20253;-61
2022/05/26 04:03:01;;;;;;;49.85;30.98;;;;;;;18.93;100.00;94806.13;5114739;28;20211;-61
2022/05/26 04:05:27;;;;;;;49.08;33.65;;;;;;;18.93;100.00;94816.44;5114841;28;20575;-61
2022/05/26 04:07:52;;;;;;;47.15;32.42;;;;;;;18.62;100.00;94805.47;5114903;28;20195;-62
2022/05/26 04:10:18;;;;;;;51.83;33.35;;;;;;;18.79;100.00;94816.41;5114603;28;20180;-63
2022/05/26 04:12:43;;;;;;;54.17;32.25;;;;;;;18.63;100.00;94813.97;5114683;28;20253;-59
2022/05/26 04:15:10;;;;;;;53.75;33.83;;;;;;;18.67;100.00;94820.38;5114697;28;20266;-61
2022/05/26 04:17:36;;;;;;;50.03;34.70;;;;;;;18.41;100.00;94821.56;5114303;28;20206;-62
2022/05/26 04:20:03;;;;;;;49.60;32.75;;;;;;;18.68;100.00;94832.31;5114158;28;20201;-61
2022/05/26 04:22:28;;;;;;;50.17;33.25;;;;;;;18.88;100.00;94830.81;5114195;27;20556;-62
2022/05/26 04:24:56;;;;;;;47.53;32.03;;;;;;;19.21;100.00;94829.50;5114154;28;20209;-61
2022/05/26 04:27:25;;;;;;;45.97;32.25;;;;;;;19.09;100.00;94834.31;5114182;28;20184;-61
2022/05/26 04:29:52;;;;;;;35.38;25.75;;;;;;;19.31;100.00;94840.34;5114072;28;20205;-60
2022/05/26 04:32:18;;;;;;;37.10;26.30;;;;;;;20.08;100.00;94836.31;5114084;28;20191;-60
2022/05/26 04:34:48;;;;;;;44.25;30.45;;;;;;;20.45;100.00;94848.25;5113984;28;20172;-62
2022/05/26 04:37:14;;;;;;;47.42;30.77;;;;;;;20.77;100.00;94840.78;5113968;27;20653;-66
2022/05/26 04:39:40;;;;;;;39.47;28.45;;;;;;;20.83;100.00;94846.97;5113802;28;20196;-65
2022/05/26 04:42:06;;;;;;;38.35;28.45;;;;;;;20.94;100.00;94877.50;5113982;28;20224;-63
2022/05/26 04:44:34;;;;;;;42.20;29.20;;;;;;;20.74;100.00;94871.38;5112184;28;20196;-63
2022/05/26 04:47:00;;;;;;;46.35;30.25;;;;;;;20.33;100.00;94853.13;5114029;28;20171;-64
2022/05/26 04:49:26;;;;;;;46.83;30.52;;;;;;;20.19;100.00;94853.13;5112791;28;20199;-66
2022/05/26 04:51:52;;;;;;;46.33;30.95;;;;;;;19.91;100.00;94845.28;5113682;28;20183;-67
2022/05/26 04:56:42;;;;;;;52.58;29.80;;;;;;;19.67;100.00;94846.41;5103792;22;20281;-64
2022/05/26 04:59:08;;;;;;;44.97;28.88;;;;;;;19.54;100.00;94841.09;5099943;22;20728;-69
2022/05/26 05:01:34;;;;;;;40.47;30.52;;;;;;;19.56;100.00;94841.69;5091642;28;20181;-63
2022/05/26 05:04:00;;;;;;;47.80;32.00;;;;;;;19.39;100.00;94845.47;5093088;28;20210;-63
2022/05/26 05:06:26;;;;;;;46.20;32.00;;;;;;;19.39;100.00;94842.88;5092890;28;20183;-64
2022/05/26 05:08:52;;;;;;;49.72;31.85;;;;;;;19.37;100.00;94844.84;5092665;22;20216;-68
2022/05/26 05:11:17;;;;;;;44.88;31.50;;;;;;;19.15;100.00;94846.47;5072648;28;20238;-67
2022/05/26 05:13:43;;;;;;;42.03;31.25;;;;;;;19.40;100.00;94856.56;5083995;22;20291;-66
2022/05/26 05:16:21;;;;;;;45.83;33.42;;;;;;;19.21;100.00;94844.97;5078292;22;20224;-63
2022/05/26 05:18:47;;;;;;;49.08;32.33;;;;;;;19.32;100.00;94848.88;5072241;28;20295;-65
2022/05/26 05:21:17;;;;;;;48.90;33.88;;;;;;;19.25;100.00;94847.03;5072638;28;20192;-70
2022/05/26 05:23:46;;;;;;;49.17;33.63;;;;;;;19.32;100.00;94857.44;5055131;28;20211;-67
2022/05/26 05:26:16;;;;;;;54.33;34.10;;;;;;;19.58;100.00;94868.13;5072740;28;20181;-68
2022/05/26 05:28:49;;;;;;;54.97;34.33;;;;;;;19.60;100.00;94863.56;5078043;22;20718;-64
2022/05/26 05:31:25;;;;;;;53.28;34.85;;;;;;;19.34;100.00;94855.50;5072133;28;20157;-68
2022/05/26 05:34:14;;;;;;;49.05;32.58;;;;;;;19.40;100.00;94874.59;5072586;28;20204;-70
2022/05/26 05:36:40;;;;;;;48.83;33.33;;;;;;;19.48;100.00;94866.78;5072193;28;20158;-64
2022/05/26 05:39:06;;;;;;;48.75;31.98;;;;;;;19.75;100.00;94861.78;5077751;22;20231;-62
2022/05/26 05:41:34;;;;;;;47.78;32.22;;;;;;;20.23;100.00;94883.59;5071827;28;20177;-63
2022/05/26 05:44:01;;;;;;;45.10;31.45;;;;;;;20.77;100.00;94878.72;5077389;22;20741;-62
2022/05/26 05:46:33;;;;;;;41.65;29.10;;;;;;;21.14;100.00;94873.28;5071154;28;20177;-61
2022/05/26 05:49:01;;;;;;;44.05;28.60;;;;;;;21.52;100.00;94899.59;5071778;28;20369;-62
2022/05/26 05:51:27;;;;;;;39.08;26.15;;;;;;;21.87;100.00;94890.84;4800465;22;7948582;-67
2022/05/26 05:53:52;;;;;;;40.28;25.98;;;;;;;22.11;100.00;94895.53;5072009;28;20201;-66
2022/05/26 05:56:17;;;;;;;39.88;28.02;;;;;;;22.42;100.00;94924.31;5072267;28;20207;-66
2022/05/26 05:58:43;;;;;;;43.17;25.27;;;;;;;22.66;100.00;94948.13;5071612;28;20203;-67
2022/05/26 06:01:08;;;;;;;35.83;24.58;;;;;;;22.81;100.00;94940.97;5071502;28;20698;-65
2022/05/26 06:03:35;;;;;;;35.15;22.58;;;;;;;23.00;100.00;94961.75;5071654;28;20266;-64
2022/05/26 06:06:02;;;;;;;36.47;22.45;;;;;;;23.11;100.00;94984.50;5054008;28;20185;-63
2022/05/26 06:08:29;;;;;;;35.53;23.13;;;;;;;23.25;100.00;94983.50;5068426;22;20937;-67
2022/05/26 06:10:54;;;;;;;31.88;22.90;;;;;;;23.34;100.00;94966.78;5071443;28;20232;-65
2022/05/26 06:13:20;;;;;;;38.08;21.88;;;;;;;23.40;100.00;94990.31;5071732;28;20247;-67
2022/05/26 06:15:46;;;;;;;39.05;22.55;;;;;;;23.52;100.00;94997.31;5071504;28;20635;-67
2022/05/26 06:18:13;;;;;;;33.92;21.52;;;;;;;23.54;100.00;94982.34;5071647;28;20200;-64
2022/05/26 06:20:38;;;;;;;36.08;21.63;;;;;;;23.65;100.00;94986.13;5071451;28;20302;-62
2022/05/26 06:23:04;;;;;;;31.10;19.77;;;;;;;23.60;100.00;94967.75;5071382;28;20292;-64
2022/05/26 06:25:29;;;;;;;38.42;24.90;;;;;;;23.64;100.00;95052.81;5053450;28;20202;-64
2022/05/26 06:30:39;;;;;;;33.50;20.42;;;;;;;23.60;100.00;94967.75;5071598;28;20167;-68
2022/05/26 06:38:36;;;;;;;32.28;22.92;;;;;;;23.97;100.00;95019.03;5071473;28;20204;-63
2022/05/26 06:43:48;;;;;;;36.67;22.52;;;;;;;24.11;100.00;95033.63;5050848;28;20223;-69
2022/05/26 06:46:15;;;;;;;31.70;21.70;;;;;;;24.12;100.00;95041.22;5077933;22;20216;-64
2022/05/26 06:48:40;;;;;;;36.00;22.90;;;;;;;24.26;100.00;95017.81;5071325;28;20197;-68
2022/05/26 06:51:07;;;;;;;30.60;20.58;;;;;;;24.19;100.00;95007.44;5071822;28;20199;-63
2022/05/26 06:53:33;;;;;;;39.90;21.83;;;;;;;24.24;100.00;95018.00;5088851;22;20257;-62
2022/05/26 06:55:58;;;;;;;38.22;23.35;;;;;;;24.12;98.86;95071.59;5113281;22;20255;-65
2022/05/26 06:58:25;;;;;;;31.60;21.88;;;;;;;24.34;99.46;95053.97;5078842;22;20282;-65
2022/05/26 07:00:51;;;;;;;37.83;23.23;;;;;;;24.39;99.11;95054.16;5071132;28;20189;-63
2022/05/26 07:03:16;;;;;;;38.38;23.65;;;;;;;24.33;98.35;95060.97;5080620;22;20243;-63
2022/05/26 07:05:42;;;;;;;33.40;21.20;;;;;;;24.29;99.09;95033.78;5091428;28;20173;-62
2022/05/26 07:08:07;;;;;;;32.30;22.08;;;;;;;23.99;97.79;95048.22;5093211;22;20227;-68
2022/05/26 07:10:34;;;;;;;29.23;20.77;;;;;;;23.97;98.11;95047.63;5071182;28;20206;-68
2022/05/26 07:13:00;;;;;;;28.85;19.80;;;;;;;23.46;96.37;95070.78;5088513;22;20250;-64
2022/05/26 07:15:26;;;;;;;34.60;18.70;;;;;;;22.89;95.23;95073.81;5113053;22;20235;-67
2022/05/26 07:17:52;;;;;;;38.95;18.95;;;;;;;22.77;98.08;95027.91;5137234;22;20228;-73
2022/05/26 07:20:18;;;;;;;31.95;18.27;;;;;;;22.56;96.76;95042.56;5106541;22;20258;-65
2022/05/26 07:25:10;;;;;;;24.75;13.18;;;;;;;22.55;91.13;95143.84;5088703;22;20252;-66
2022/05/26 07:27:36;;;;;;;24.10;13.77;;;;;;;22.62;92.24;95110.22;5074410;28;20867;-67
2022/05/26 07:30:01;;;;;;;34.47;13.75;;;;;;;22.68;93.29;95086.94;5074423;28;20181;-64
2022/05/26 07:35:00;;;;;;;26.23;12.40;;;;;;;22.81;91.29;95094.75;5216814;22;20228;-65
2022/05/26 07:49:52;;;;;;;23.88;6.28;;;;;;;23.34;71.96;95234.09;5220326;22;20232;-66
2022/05/26 07:52:18;;;;;;;9.07;5.75;;;;;;;23.44;69.65;95259.69;5208909;22;20228;-67
2022/05/26 07:54:44;;;;;;;12.75;5.70;;;;;;;23.61;67.28;95291.31;5162666;22;20224;-65
2022/05/26 07:59:35;;;;;;;13.13;4.63;;;;;;;23.75;67.40;95243.59;5110642;22;20701;-67
2022/05/26 08:02:00;;;;;;;16.63;4.70;;;;;;;23.86;64.08;95277.59;5094352;28;20173;-67
2022/05/26 08:04:26;;;;;;;11.02;4.65;;;;;;;23.98;65.35;95223.25;5136100;22;20285;-65
2022/05/26 08:06:51;;;;;;;10.60;4.82;;;;;;;24.06;64.71;95234.28;5093926;28;20560;-66
2022/05/26 08:09:19;;;;;;;12.07;4.63;;;;;;;24.09;61.42;95285.06;5109422;22;20254;-66
2022/05/26 08:11:45;;;;;;;10.02;4.30;;;;;;;24.18;62.94;95248.31;5101773;22;20288;-64
2022/05/26 08:14:11;;;;;;;21.60;5.10;;;;;;;24.18;62.39;95227.50;5093974;28;20188;-67
2022/05/26 08:16:37;;;;;;;12.90;5.32;;;;;;;24.31;63.08;95218.13;5094009;28;20222;-65
2022/05/26 08:19:04;;;;;;;13.10;5.10;;;;;;;24.44;61.74;95244.13;5093855;28;20208;-62
2022/05/26 08:21:30;;;;;;;10.30;4.57;;;;;;;24.59;61.92;95229.91;5093746;28;20284;-67
2022/05/26 08:23:56;;;;;;;11.77;4.68;;;;;;;24.80;63.08;95206.31;5101218;22;20224;-65
2022/05/26 08:26:21;;;;;;;11.85;5.03;;;;;;;24.94;62.29;95227.91;5093821;28;20177;-67
2022/05/26 08:28:47;;;;;;;13.32;4.03;;;;;;;24.84;58.78;95293.34;5112579;22;20239;-63
2022/05/26 08:31:15;;;;;;;10.23;5.10;;;;;;;24.96;58.01;95281.34;5053334;28;20271;-65
2022/05/26 08:33:41;;;;;;;8.80;3.97;;;;;;;24.93;57.42;95293.94;5080854;22;20314;-65
2022/05/26 08:36:16;;;;;;;10.80;4.57;;;;;;;25.03;58.24;95264.91;5093226;28;20551;-66
2022/05/26 08:38:44;;;;;;;9.25;4.10;;;;;;;25.11;56.87;95281.09;5093791;28;20615;-61
2022/05/26 08:41:19;;;;;;;10.10;4.63;;;;;;;25.08;56.44;95286.72;5100713;22;20235;-61
2022/05/26 08:43:58;;;;;;;9.32;4.95;;;;;;;25.20;58.31;95234.81;5074996;28;20215;-63
2022/05/26 08:46:31;;;;;;;13.18;4.68;;;;;;;25.17;57.10;95253.47;5093599;28;20188;-61
2022/05/26 08:49:11;;;;;;;11.02;4.32;;;;;;;25.23;57.33;95263.06;5101288;22;20220;-67
2022/05/26 08:52:04;;;;;;;11.18;4.25;;;;;;;25.31;58.34;95224.56;5093277;28;20180;-63
2022/05/26 08:54:51;;;;;;;6.55;4.28;;;;;;;25.36;58.02;95227.34;5093347;28;20193;-64
2022/05/26 08:57:40;;;;;;;10.52;4.10;;;;;;;25.39;57.40;95237.34;5093370;28;20621;-65
2022/05/26 09:00:11;;;;;;;12.40;4.75;;;;;;;25.31;56.68;95266.22;5092890;28;20742;-62
2022/05/26 09:02:38;;;;;;;14.70;4.72;;;;;;;25.23;57.24;95244.84;5101107;22;20216;-62
2022/05/26 09:05:13;;;;;;;14.50;4.63;;;;;;;25.30;58.69;95211.75;5092771;28;20699;-66
2022/05/26 09:13:44;;;;;;;12.57;4.45;;;;;;;25.59;58.15;95227.66;5093223;28;20291;-66
2022/05/26 09:16:10;;;;;;;8.60;4.20;;;;;;;25.68;56.53;95256.88;5093079;28;20177;-66
2022/05/26 09:18:37;;;;;;;8.50;3.83;;;;;;;25.70;55.40;95294.75;5092825;28;20775;-66
2022/05/26 09:21:28;;;;;;;9.52;4.60;;;;;;;25.68;54.30;95306.38;5074631;28;20196;-62
2022/05/26 09:24:15;;;;;;;8.80;4.25;;;;;;;25.87;54.92;95276.84;5074582;28;20200;-63
2022/05/26 09:26:48;;;;;;;9.02;4.35;;;;;;;25.86;54.34;95301.28;5092836;28;20176;-63
2022/05/26 09:29:15;;;;;;;13.38;4.38;;;;;;;25.94;54.46;95275.00;5093022;28;20239;-62
2022/05/26 09:31:47;;;;;;;10.32;4.03;;;;;;;26.20;53.54;95310.59;5092394;28;20172;-61
2022/05/26 09:34:25;;;;;;;10.63;4.22;;;;;;;26.25;53.60;95290.69;5092961;28;20544;-67
2022/05/26 09:37:00;;;;;;;11.48;4.65;;;;;;;26.31;52.79;95318.53;5092259;28;20200;-66
2022/05/26 09:39:38;;;;;;;8.95;4.82;;;;;;;26.58;55.58;95231.25;5092655;28;20729;-65
2022/05/26 09:42:28;;;;;;;9.45;4.82;;;;;;;26.65;53.00;95304.25;5092351;28;20164;-65
2022/05/26 09:45:06;;;;;;;12.30;4.90;;;;;;;26.77;51.92;95323.44;5075430;28;20688;-64
2022/05/26 09:47:53;;;;;;;9.13;3.83;;;;;;;26.85;50.25;95351.88;5091933;28;20168;-64
2022/05/26 09:50:48;;;;;;;11.18;4.20;;;;;;;26.64;48.94;95368.66;5099899;22;20243;-61
2022/05/26 09:53:28;;;;;;;11.07;3.53;;;;;;;26.62;47.68;95377.75;5092267;28;20216;-65
2022/05/26 09:55:55;;;;;;;7.78;4.18;;;;;;;26.78;48.42;95359.00;5092318;28;20199;-63
2022/05/26 09:58:36;;;;;;;7.03;4.10;;;;;;;26.94;47.16;95388.97;5092171;28;20627;-62
2022/05/26 10:01:05;;;;;;;11.60;3.20;;;;;;;27.15;47.13;95359.91;5074007;28;20253;-64
2022/05/26 10:03:41;;;;;;;9.02;4.07;;;;;;;27.07;45.93;95409.78;5091885;28;20288;-65
2022/05/26 10:06:35;;;;;;;9.57;4.00;;;;;;;27.06;46.83;95367.19;5092089;28;20213;-63
2022/05/26 10:09:09;;;;;;;11.18;3.58;;;;;;;27.16;47.09;95354.44;5073669;28;20208;-65
2022/05/26 10:11:50;;;;;;;12.10;4.28;;;;;;;27.50;47.45;95341.88;5092000;28;20183;-64
2022/05/26 10:14:37;;;;;;;7.10;3.67;;;;;;;27.41;46.91;95342.16;5092218;28;20279;-63
2022/05/26 10:17:13;;;;;;;13.57;4.18;;;;;;;27.56;47.22;95333.16;5073844;28;20180;-65
2022/05/26 10:20:00;;;;;;;9.05;3.53;;;;;;;27.59;45.20;95383.22;5074075;28;20294;-63
2022/05/26 10:22:41;;;;;;;11.02;3.70;;;;;;;27.46;43.70;95417.28;5073599;28;20237;-63
2022/05/26 10:25:09;;;;;;;7.75;3.60;;;;;;;27.58;44.35;95375.56;5092420;28;20188;-63
2022/05/26 10:27:58;;;;;;;14.23;4.32;;;;;;;27.89;44.36;95375.44;5091682;28;20309;-60
2022/05/26 10:30:45;;;;;;;12.00;3.95;;;;;;;27.90;43.66;95406.59;5091686;28;20693;-62
2022/05/26 10:33:35;;;;;;;11.10;3.40;;;;;;;27.88;43.26;95400.78;5091847;28;20204;-63
2022/05/26 10:36:18;;;;;;;6.50;3.05;;;;;;;27.91;41.07;95460.50;5091836;28;20172;-62
2022/05/26 10:38:49;;;;;;;7.90;3.63;;;;;;;28.34;41.07;95454.41;5091734;28;20210;-61
2022/05/26 10:41:33;;;;;;;7.55;2.88;;;;;;;28.23;38.47;95422.72;5091597;28;20263;-63
2022/05/26 10:44:25;;;;;;;8.13;3.63;;;;;;;28.42;37.65;95367.75;5091914;28;20200;-63
2022/05/26 10:46:59;;;;;;;12.45;3.60;;;;;;;28.15;37.72;95323.63;5083472;28;20667;-63
2022/05/26 10:49:32;;;;;;;7.25;3.35;;;;;;;28.68;37.12;95321.09;5077170;28;20272;-62
2022/05/26 10:52:07;;;;;;;12.90;3.40;;;;;;;29.16;32.78;95354.97;5077200;28;20180;-62
2022/05/26 10:54:44;;;;;;;6.97;2.80;;;;;;;29.32;32.81;95316.81;5095849;28;20199;-63
2022/05/26 10:57:18;;;;;;;7.40;3.10;;;;;;;29.34;32.06;95328.66;5077150;28;20188;-65
2022/05/26 10:59:50;;;;;;;5.13;3.08;;;;;;;29.58;32.62;95290.09;5095930;28;20204;-62
2022/05/26 11:02:24;;;;;;;8.55;3.17;;;;;;;29.90;32.89;95259.03;5077112;28;20183;-60
2022/05/26 11:05:09;;;;;;;10.63;3.22;;;;;;;29.48;32.59;95259.25;5095809;28;20195;-63
2022/05/26 11:07:53;;;;;;;11.13;3.20;;;;;;;29.71;32.40;95245.28;5095233;28;20652;-64
2022/05/26 11:10:29;;;;;;;5.65;3.10;;;;;;;29.35;33.94;95211.56;5095223;28;20622;-63
2022/05/26 11:13:11;;;;;;;6.13;3.67;;;;;;;29.33;36.81;95154.13;5076791;28;20214;-62
2022/05/26 11:18:43;;;;;;;9.20;3.65;;;;;;;30.33;36.93;95143.81;5094505;28;20207;-65
2022/05/26 11:21:14;;;;;;;7.00;3.38;;;;;;;30.67;37.53;95129.63;5094972;28;20168;-62
2022/05/26 11:23:41;;;;;;;8.73;3.50;;;;;;;31.19;36.73;95151.84;5095045;28;20207;-61
2022/05/26 11:26:31;;;;;;;10.68;3.70;;;;;;;31.41;36.79;95147.38;5094807;28;20180;-62
2022/05/26 11:29:04;;;;;;;13.85;4.47;;;;;;;31.35;37.86;95122.06;5094834;28;20227;-62
2022/05/26 11:37:36;;;;;;;7.32;3.60;;;;;;;30.30;37.66;95123.31;5094842;28;20172;-62
2022/05/26 11:40:13;;;;;;;4.60;3.22;;;;;;;30.44;37.64;95116.72;5076713;28;20261;-62
2022/05/26 11:42:54;;;;;;;6.65;3.45;;;;;;;30.57;36.98;95126.84;5094491;28;20695;-63
2022/05/26 11:45:32;;;;;;;6.13;3.38;;;;;;;30.77;36.48;95144.69;5076230;28;20636;-65
2022/05/26 11:48:04;;;;;;;10.20;3.88;;;;;;;30.77;36.66;95140.25;5094371;28;20196;-62
2022/05/26 11:50:36;;;;;;;12.27;3.45;;;;;;;30.95;36.82;95129.47;5083792;22;20220;-64
2022/05/26 11:53:05;;;;;;;8.45;3.88;;;;;;;30.31;37.58;95107.34;5076049;28;20196;-62
2022/05/26 11:55:53;;;;;;;9.38;3.75;;;;;;;29.26;39.81;95067.00;5094166;28;20172;-64
2022/05/26 11:58:31;;;;;;;9.27;3.63;;;;;;;28.82;40.04;95062.47;5093782;28;20211;-64
2022/05/26 12:01:09;;;;;;;11.75;3.33;;;;;;;29.32;40.12;95066.06;5094299;28;20550;-62
2022/05/26 12:03:47;;;;;;;9.40;3.47;;;;;;;30.15;39.22;95083.69;5094062;28;20215;-61
2022/05/26 12:06:14;;;;;;;7.30;3.30;;;;;;;30.51;37.75;95119.94;5094181;28;20736;-63
2022/05/26 12:08:52;;;;;;;7.88;3.70;;;;;;;30.58;36.35;95162.59;5094146;28;20683;-64
2022/05/26 12:11:19;;;;;;;12.43;3.78;;;;;;;30.71;36.00;95149.09;5075823;28;20191;-63
2022/05/26 12:13:58;;;;;;;9.27;3.65;;;;;;;31.32;35.47;95169.06;5094072;28;20200;-62
2022/05/26 12:16:27;;;;;;;7.82;3.70;;;;;;;31.72;35.55;95153.75;5094238;28;20184;-63
2022/05/26 12:18:56;;;;;;;10.88;3.50;;;;;;;31.29;36.78;95138.81;5093888;28;20192;-63
2022/05/26 12:21:27;;;;;;;10.15;3.25;;;;;;;30.40;37.32;95134.75;5093718;28;20582;-62
2022/05/26 12:23:57;;;;;;;8.98;3.88;;;;;;;30.45;37.89;95120.91;5093811;28;20204;-65
2022/05/26 12:26:42;;;;;;;16.45;3.85;;;;;;;29.81;39.80;95082.91;5075623;28;20176;-63
2022/05/26 12:29:43;;;;;;;7.63;3.45;;;;;;;29.62;39.90;95078.88;5093848;28;20255;-62
2022/05/26 12:32:13;;;;;;;10.20;4.32;;;;;;;29.57;41.56;95053.38;5093571;28;20176;-63
2022/05/26 12:35:06;;;;;;;14.90;4.25;;;;;;;29.62;40.42;95061.34;5093842;28;20235;-62
2022/05/26 12:37:35;;;;;;;12.40;4.25;;;;;;;29.33;39.82;95087.84;5075437;28;20209;-63